This is the latest recevied weather packets stored in our database for station/object LZ3DJ-10. If no packets are shown the sender has not sent any weather packets the latest 10 day(s).
| Time | Temp. | Humidity | Pressure | Rain* | Wind** | Luminosity | Snow |
|---|---|---|---|---|---|---|---|
| 1787949905 | 20.56° C | 69% | 1016.3 hPa | 0 mm | 0 m/s | - | - |
| 1787949006 | 21.11° C | 69% | 1016.3 hPa | 0 mm | 0 m/s | - | - |
| 1787948106 | 21.11° C | 69% | 1016.3 hPa | 0 mm | 0 m/s | - | - |
| 1787947205 | 21.11° C | 68% | 1016.2 hPa | 0 mm | 0 m/s | - | - |
| 1787946306 | 21.67° C | 67% | 1016.1 hPa | 0 mm | 0 m/s | - | - |
| 1787945406 | 21.67° C | 66% | 1015.9 hPa | 0 mm | 0 m/s | - | - |
| 1787944506 | 22.22° C | 65% | 1015.9 hPa | 0 mm | 0 m/s | - | - |
| 1787943605 | 22.22° C | 65% | 1015.8 hPa | 0 mm | 0 m/s | - | - |
| 1787942706 | 22.22° C | 65% | 1015.8 hPa | 0 mm | 0.45 m/s, 308° | - | - |
| 1787941805 | 22.78° C | 63% | 1015.7 hPa | 0 mm | 0 m/s | - | - |
| 1787940905 | 23.33° C | 62% | 1015.5 hPa | 0 mm | 0 m/s | - | - |
| 1787940006 | 23.33° C | 62% | 1015.4 hPa | 0 mm | 0 m/s | - | - |
| 1787939105 | 23.89° C | 61% | 1015.1 hPa | 0 mm | 0 m/s | - | - |
| 1787938205 | 24.44° C | 58% | 1014.8 hPa | 0 mm | 0 m/s | - | - |
| 1787937306 | 25° C | 57% | 1014.6 hPa | 0 mm | 0 m/s | - | - |
| 1787936405 | 26.11° C | 54% | 1014.3 hPa | 0 mm | 0 m/s | - | - |
| 1787935506 | 26.67° C | 53% | 1014.1 hPa | 0 mm | 0 m/s | - | - |
| 1787934606 | 27.78° C | 50% | 1013.5 hPa | 0 mm | 0 m/s | - | - |
| 1787933705 | 28.89° C | 47% | 1013.3 hPa | 0 mm | 0 m/s | - | - |
| 1787932805 | 30.56° C | 44% | 1013.1 hPa | 0 mm | 0 m/s | - | - |
| 1787931906 | 30.56° C | 44% | 1013.1 hPa | 0 mm | 0 m/s | - | - |
| 1787931005 | 30° C | 44% | 1013.1 hPa | 0 mm | 0.45 m/s, 166° | - | - |
| 1787930105 | 31.67° C | 42% | 1012.8 hPa | 0 mm | 0.45 m/s, 144° | - | - |
| 1787929205 | 33.33° C | 39% | 1012.4 hPa | 0 mm | 0.45 m/s, 324° | - | - |
| 1787928306 | 33.89° C | 37% | 1011.9 hPa | 0 mm | 0 m/s | - | - |
* Rain latest hour (hover to see other rain measurements)
** Current wind speed in m/s (hover to see current wind gust speed)